Kezdőlap
METAR-TAF:

METAR-TAF

Repülőterek :

Albion Municipal Airport

Albion, Nebraska, Amerikai Egyesült Államok

földrajzi szélesség: 41-43-42N, földrajzi hosszúság: 098-03-20W, magasság: 551 m

Jelenlegi meteorológiai megfigyelések

A jelentés 12 perccel ezelõtt készült, 03:35 UTC
Szélcsend
Hőmérséklet 23°C
Páratartalom 83%
Légköri nyomás 1009 hPa
Látótávolság: 16.1 km
Derült ég

METAR: KBVN 130335Z AUTO 00000KT 10SM CLR 23/20 A2979 RMK AO2 T02320202

Idő: 22:47 (03:47 UTC)


TAF: hiányzik

Meteorológiai megfigyelések és előrejelzések több, mint 4000 repülőtéren (METAR és TAF jelentéseket).

A térképen piros és sárga pontok jelzik az elérhető meteorológiai állomásokat.

Mozgassa az egeret a pont fölött, hogy megjelenjen az állomás neve.

Azután kattintson az időjárási megfigyelések és előrejelzések megtekintéséhez.

A térkép megváltoztatása: kattintson a fekete keresztel jelölt zöld gombra ráközelítéshez, a vonallal jelölt zöld gombra távolításhoz, vagy a zöld nyilakra a szomszédos térképek eléréséhez.


METAR-TAF: